Time;durP1;ratioP1;P1;durP2;ratioP2;P2;SDS_P1;SDS_P2;PMS_P1;PMS_P2;Temp;Humidity;BMP_temperature;BMP_pressure;BME280_temperature;BME280_humidity;BME280_pressure;Samples;Min_cycle;Max_cycle;Signal;HPM_P1;HPM_P2
2023/08/30 00:04:35;;;;;;;9.68;5.88;;;;;;;16.61;73.95;100705.25;10412858;28;20172;-69
2023/08/30 00:09:37;;;;;;;10.95;6.65;;;;;;;16.42;74.03;100713.81;10439240;28;20049;-69
2023/08/30 00:14:39;;;;;;;13.00;7.85;;;;;;;16.20;75.03;100717.47;10427146;28;20044;-69
2023/08/30 00:19:42;;;;;;;10.63;6.07;;;;;;;16.64;74.23;100699.06;10442528;28;20041;-69
2023/08/30 00:24:45;;;;;;;15.32;7.03;;;;;;;16.66;73.80;100707.06;10445433;28;20388;-69
2023/08/30 00:29:47;;;;;;;17.75;8.60;;;;;;;16.53;73.14;100715.19;10441412;28;20052;-69
2023/08/30 00:34:51;;;;;;;12.95;7.55;;;;;;;16.45;74.07;100709.59;10418430;28;20049;-69
2023/08/30 00:39:53;;;;;;;12.15;7.85;;;;;;;16.17;75.14;100704.25;10443307;28;20049;-69
2023/08/30 00:44:55;;;;;;;12.90;7.20;;;;;;;15.97;75.95;100707.56;10443719;28;20046;-69
2023/08/30 00:49:58;;;;;;;14.15;7.05;;;;;;;16.43;75.08;100704.38;10441256;28;20040;-69
2023/08/30 00:55:01;;;;;;;12.02;6.88;;;;;;;16.43;74.43;100704.38;10443734;28;20045;-69
2023/08/30 01:00:07;;;;;;;10.45;6.30;;;;;;;16.47;74.36;100708.13;10414490;28;20075;-69
2023/08/30 01:05:10;;;;;;;13.83;6.97;;;;;;;16.31;74.36;100701.38;10438857;28;20037;-69
2023/08/30 01:10:12;;;;;;;15.25;6.07;;;;;;;16.03;75.92;100706.28;10439701;28;20537;-69
2023/08/30 01:15:22;;;;;;;13.02;6.57;;;;;;;16.18;75.46;100688.47;10426137;28;20414;-69
2023/08/30 01:20:25;;;;;;;13.65;6.53;;;;;;;15.80;75.98;100688.88;10405275;28;20486;-69
2023/08/30 01:25:55;;;;;;;12.82;6.90;;;;;;;15.97;76.77;100691.75;10442622;28;20045;-69
2023/08/30 01:30:58;;;;;;;11.52;6.88;;;;;;;15.84;76.60;100694.59;10411893;28;20042;-69
2023/08/30 01:36:03;;;;;;;10.20;5.85;;;;;;;15.85;76.41;100691.50;10425854;28;20034;-69
2023/08/30 01:41:05;;;;;;;9.45;6.15;;;;;;;16.07;75.62;100690.66;10413967;28;20054;-69
2023/08/30 01:46:08;;;;;;;9.02;5.50;;;;;;;16.18;74.90;100680.16;10442427;28;20053;-70
2023/08/30 01:51:10;;;;;;;11.93;6.60;;;;;;;16.17;75.11;100681.28;10422598;28;20053;-69
2023/08/30 01:56:12;;;;;;;10.63;5.55;;;;;;;16.07;75.19;100667.69;10401489;28;20041;-69
2023/08/30 02:01:15;;;;;;;13.00;6.28;;;;;;;16.22;74.41;100670.06;10429057;28;20088;-69
2023/08/30 02:06:26;;;;;;;12.68;5.88;;;;;;;15.75;75.55;100675.16;10441235;28;20041;-69
2023/08/30 02:11:31;;;;;;;8.48;5.60;;;;;;;15.55;76.38;100678.38;10440210;28;20033;-69
2023/08/30 02:16:33;;;;;;;9.77;5.60;;;;;;;15.33;77.45;100670.91;10425316;28;20507;-69
2023/08/30 02:21:37;;;;;;;11.18;5.30;;;;;;;15.50;77.22;100675.75;10433810;28;20510;-69
2023/08/30 02:26:39;;;;;;;13.32;5.55;;;;;;;15.49;76.49;100674.13;10447327;28;20049;-69
2023/08/30 02:31:42;;;;;;;10.85;5.55;;;;;;;15.52;76.90;100673.50;10447888;28;20041;-69
2023/08/30 02:36:44;;;;;;;10.80;5.60;;;;;;;15.28;77.77;100674.59;10446827;28;20038;-69
2023/08/30 02:41:47;;;;;;;12.00;5.63;;;;;;;15.47;77.10;100668.09;10449402;28;20050;-69
2023/08/30 02:46:49;;;;;;;10.50;5.07;;;;;;;15.14;77.97;100670.25;10447916;28;20425;-69
2023/08/30 02:51:51;;;;;;;7.72;5.57;;;;;;;14.72;78.47;100664.75;10447320;28;20044;-69
2023/08/30 02:56:53;;;;;;;8.32;5.10;;;;;;;14.53;78.79;100669.56;10402366;28;20117;-69
2023/08/30 03:01:56;;;;;;;10.20;4.82;;;;;;;14.56;79.47;100668.97;10449453;28;20411;-69
2023/08/30 03:06:58;;;;;;;5.57;3.90;;;;;;;14.54;79.19;100676.72;10445905;28;20097;-69
2023/08/30 03:12:03;;;;;;;7.80;5.25;;;;;;;14.50;79.47;100672.97;10448824;28;20048;-68
2023/08/30 03:17:07;;;;;;;8.45;4.40;;;;;;;14.82;78.18;100662.91;10414981;28;20041;-69
2023/08/30 03:22:09;;;;;;;6.72;4.68;;;;;;;14.76;77.48;100656.69;10437530;28;20057;-69
2023/08/30 03:27:12;;;;;;;7.55;4.78;;;;;;;14.42;78.37;100657.91;10444022;28;20057;-69
2023/08/30 03:32:17;;;;;;;9.77;4.93;;;;;;;14.71;78.84;100649.31;10438289;28;20049;-69
2023/08/30 03:37:19;;;;;;;6.72;4.22;;;;;;;15.60;75.47;100653.41;10423787;28;20040;-69
2023/08/30 03:42:21;;;;;;;9.32;4.85;;;;;;;15.96;73.24;100640.28;10446182;28;20073;-69
2023/08/30 03:47:24;;;;;;;10.55;4.88;;;;;;;15.47;74.18;100645.97;10445269;28;20044;-69
2023/08/30 03:52:27;;;;;;;7.10;4.53;;;;;;;15.08;76.60;100636.34;10442010;28;20443;-69
2023/08/30 03:57:29;;;;;;;6.00;4.00;;;;;;;15.25;75.93;100646.75;10443952;28;20072;-69
2023/08/30 04:02:31;;;;;;;6.80;3.78;;;;;;;15.09;75.35;100633.28;10394789;28;20034;-69
2023/08/30 04:07:35;;;;;;;5.35;3.42;;;;;;;14.70;76.99;100620.06;10444093;28;20060;-69
2023/08/30 04:12:37;;;;;;;6.30;3.95;;;;;;;15.44;74.45;100625.25;10422282;28;20052;-69
2023/08/30 04:17:40;;;;;;;5.82;3.70;;;;;;;15.63;73.55;100633.44;10445408;28;20415;-69
2023/08/30 04:22:42;;;;;;;8.57;4.03;;;;;;;15.51;73.59;100622.91;10442845;28;20392;-69
2023/08/30 04:27:45;;;;;;;7.65;3.83;;;;;;;15.61;75.32;100600.53;10445080;28;20052;-69
2023/08/30 04:32:47;;;;;;;5.60;4.28;;;;;;;17.39;68.57;100578.72;10440899;28;20044;-69
2023/08/30 04:37:49;;;;;;;5.53;3.92;;;;;;;17.99;65.98;100563.06;10439885;28;20532;-69
2023/08/30 04:42:52;;;;;;;4.32;3.58;;;;;;;17.61;66.42;100576.88;10442682;28;20054;-69
2023/08/30 04:47:54;;;;;;;6.40;4.32;;;;;;;17.77;65.22;100569.69;10426178;28;20052;-69
2023/08/30 04:52:57;;;;;;;6.30;3.80;;;;;;;18.45;63.54;100572.50;10443546;28;20052;-69
2023/08/30 04:58:00;;;;;;;7.50;4.32;;;;;;;19.02;62.21;100574.75;10442181;28;20037;-69
2023/08/30 05:03:05;;;;;;;6.22;3.20;;;;;;;19.97;58.69;100571.06;10443557;28;20411;-69
2023/08/30 05:08:08;;;;;;;6.90;3.80;;;;;;;20.70;56.58;100583.03;10401816;28;20041;-69
2023/08/30 05:13:10;;;;;;;8.38;3.67;;;;;;;20.77;57.23;100588.00;10433135;28;20033;-69
2023/08/30 05:18:13;;;;;;;7.72;4.47;;;;;;;20.17;58.11;100567.34;10401764;28;20038;-69
2023/08/30 05:23:16;;;;;;;6.68;3.47;;;;;;;20.26;57.87;100572.78;10418774;28;20045;-69
2023/08/30 05:28:18;;;;;;;5.80;3.80;;;;;;;20.54;57.29;100593.28;10443525;28;20045;-69
2023/08/30 05:33:20;;;;;;;3.83;2.80;;;;;;;20.53;57.52;100600.00;10424994;28;20053;-69
2023/08/30 05:38:38;;;;;;;5.90;3.53;;;;;;;21.52;55.28;100584.66;10405670;28;20034;-69
2023/08/30 05:43:58;;;;;;;5.43;3.20;;;;;;;21.66;55.53;100593.44;10440789;28;20045;-69
2023/08/30 05:49:02;;;;;;;5.25;3.25;;;;;;;21.85;55.20;100582.38;10408284;28;20064;-69
2023/08/30 05:54:05;;;;;;;5.75;3.58;;;;;;;21.71;55.35;100592.38;10435871;28;20416;-69
2023/08/30 05:59:08;;;;;;;8.02;3.25;;;;;;;21.47;56.32;100584.91;10450359;28;20531;-69
2023/08/30 06:04:10;;;;;;;7.45;3.22;;;;;;;22.97;52.92;100576.38;10452512;28;20034;-69
2023/08/30 06:09:12;;;;;;;6.15;3.05;;;;;;;22.30;53.56;100574.78;10448014;28;20427;-69
2023/08/30 06:14:15;;;;;;;7.30;4.00;;;;;;;22.52;54.13;100579.69;10431803;28;20053;-69
2023/08/30 06:19:17;;;;;;;5.05;3.40;;;;;;;22.75;53.28;100591.84;10449459;28;20048;-69
2023/08/30 06:24:20;;;;;;;8.10;3.60;;;;;;;23.19;52.17;100593.63;10446682;28;20056;-69
2023/08/30 06:29:22;;;;;;;3.85;3.05;;;;;;;23.87;51.04;100601.41;10445581;28;20060;-69
2023/08/30 06:34:25;;;;;;;6.05;2.80;;;;;;;23.44;52.02;100608.97;10449878;28;20159;-68
2023/08/30 06:39:33;;;;;;;4.35;2.83;;;;;;;24.23;50.32;100589.63;10442392;28;20431;-70
2023/08/30 06:44:35;;;;;;;3.58;2.53;;;;;;;24.46;49.53;100606.47;10435657;28;20038;-69
2023/08/30 06:49:37;;;;;;;3.42;1.90;;;;;;;24.70;49.48;100588.41;10447872;28;20414;-69
2023/08/30 06:54:40;;;;;;;3.58;2.42;;;;;;;24.98;48.19;100609.66;10448447;28;20078;-69
2023/08/30 06:59:43;;;;;;;2.97;2.28;;;;;;;25.96;47.44;100614.94;10423722;28;20052;-69
2023/08/30 07:04:45;;;;;;;6.82;2.47;;;;;;;24.33;48.41;100624.69;10449269;28;20542;-69
2023/08/30 07:09:47;;;;;;;5.50;2.80;;;;;;;24.65;48.34;100628.84;10444990;28;20415;-69
2023/08/30 07:14:49;;;;;;;6.47;2.83;;;;;;;23.92;48.58;100620.72;10449551;28;20044;-69
2023/08/30 07:19:52;;;;;;;5.03;2.63;;;;;;;22.59;52.71;100635.00;10444750;28;20546;-69
2023/08/30 07:24:54;;;;;;;4.78;2.50;;;;;;;21.82;55.44;100649.34;10421394;28;20515;-69
2023/08/30 07:29:57;;;;;;;3.47;2.28;;;;;;;21.25;55.79;100662.47;10447884;28;20053;-69
2023/08/30 07:35:00;;;;;;;3.70;2.30;;;;;;;21.35;56.12;100642.44;10445595;28;20124;-69
2023/08/30 07:40:05;;;;;;;2.03;1.83;;;;;;;21.42;55.69;100652.19;10445526;28;20057;-69
2023/08/30 07:45:09;;;;;;;3.20;1.90;;;;;;;21.02;57.21;100647.38;10447067;28;20053;-69
2023/08/30 07:50:11;;;;;;;3.05;1.70;;;;;;;21.11;58.38;100641.66;10440833;28;20052;-69
2023/08/30 07:55:14;;;;;;;3.20;2.15;;;;;;;20.84;57.11;100665.53;10441242;28;20045;-69
2023/08/30 08:00:16;;;;;;;3.25;1.88;;;;;;;20.71;58.11;100670.28;10444163;28;20053;-68
2023/08/30 08:05:20;;;;;;;2.53;1.92;;;;;;;20.84;57.81;100659.94;10445687;28;20042;-68
2023/08/30 08:10:22;;;;;;;2.30;1.80;;;;;;;20.50;57.84;100647.28;10442088;28;20049;-69
2023/08/30 08:15:25;;;;;;;4.50;1.83;;;;;;;20.58;57.61;100658.31;10445836;28;20455;-68
2023/08/30 08:20:29;;;;;;;2.70;1.85;;;;;;;20.76;57.26;100670.06;10445746;28;20045;-68
2023/08/30 08:25:31;;;;;;;6.45;1.90;;;;;;;20.44;58.09;100688.50;10444641;28;20033;-68
2023/08/30 08:30:33;;;;;;;3.63;1.83;;;;;;;20.18;58.98;100706.31;10441214;28;20041;-68
2023/08/30 08:35:36;;;;;;;2.20;1.40;;;;;;;20.18;59.13;100705.50;10431935;28;20048;-67
2023/08/30 08:40:41;;;;;;;2.97;1.83;;;;;;;19.95;59.96;100680.00;10441845;28;20045;-67
2023/08/30 08:45:45;;;;;;;4.40;1.70;;;;;;;19.71;61.93;100669.59;10438670;28;20537;-68
2023/08/30 08:50:49;;;;;;;3.50;1.80;;;;;;;20.01;60.14;100648.00;10435456;28;20511;-67
2023/08/30 08:55:52;;;;;;;4.00;1.85;;;;;;;19.74;60.36;100643.03;10431347;28;20044;-68
2023/08/30 09:00:55;;;;;;;3.00;1.50;;;;;;;19.95;61.80;100629.84;10438532;28;20519;-67
2023/08/30 09:05:57;;;;;;;3.47;2.05;;;;;;;19.09;66.23;100612.00;10391443;28;20045;-68
2023/08/30 09:11:00;;;;;;;1.73;1.60;;;;;;;18.07;70.00;100565.00;10433096;28;20045;-68
2023/08/30 09:16:02;;;;;;;1.80;1.55;;;;;;;17.66;70.88;100540.59;10427147;28;20176;-70
2023/08/30 09:21:09;;;;;;;4.15;1.90;;;;;;;17.81;71.52;100536.50;10430946;28;20491;-70
2023/08/30 09:26:12;;;;;;;7.43;2.10;;;;;;;18.16;71.14;100512.19;10413055;28;20033;-70
2023/08/30 09:31:19;;;;;;;6.00;3.17;;;;;;;18.15;70.37;100491.94;10439828;28;20060;-71
2023/08/30 09:36:22;;;;;;;4.30;2.25;;;;;;;18.25;70.91;100463.78;10407868;28;20050;-74
2023/08/30 09:41:25;;;;;;;2.50;1.70;;;;;;;18.06;71.33;100439.22;10423699;28;20053;-73
2023/08/30 09:46:27;;;;;;;5.82;2.88;;;;;;;17.95;72.38;100434.41;10420646;28;20129;-74
2023/08/30 09:51:30;;;;;;;1.27;1.13;;;;;;;18.06;71.19;100447.56;10420710;28;20053;-79
2023/08/30 09:56:34;;;;;;;2.35;1.70;;;;;;;18.19;70.76;100423.44;10388578;28;20041;-74
2023/08/30 10:01:37;;;;;;;2.60;1.13;;;;;;;18.29;70.04;100405.59;10435253;28;20040;-73
2023/08/30 10:06:39;;;;;;;1.52;1.42;;;;;;;18.24;70.15;100384.38;10439308;28;20040;-73
2023/08/30 10:11:43;;;;;;;2.85;1.90;;;;;;;18.51;69.87;100402.44;10428845;28;20045;-72
2023/08/30 10:16:49;;;;;;;2.30;1.83;;;;;;;18.54;69.71;100384.28;10430380;28;20037;-71
2023/08/30 10:22:04;;;;;;;2.50;1.97;;;;;;;18.47;69.82;100420.97;10434491;28;20037;-70
2023/08/30 10:27:08;;;;;;;2.40;1.42;;;;;;;18.45;70.10;100406.59;10420568;28;20041;-70
2023/08/30 10:32:10;;;;;;;1.63;0.80;;;;;;;18.59;69.69;100397.97;10421600;28;20037;-70
2023/08/30 10:37:12;;;;;;;3.60;2.10;;;;;;;18.42;70.78;100390.59;10408648;28;20030;-71
2023/08/30 10:42:16;;;;;;;2.78;2.10;;;;;;;17.89;73.29;100383.81;10439692;28;20063;-71
2023/08/30 10:47:30;;;;;;;3.70;2.72;;;;;;;17.36;76.72;100353.88;10430817;28;20503;-70
2023/08/30 10:52:33;;;;;;;1.45;1.23;;;;;;;17.21;79.14;100312.84;10440577;28;20419;-71
2023/08/30 10:57:35;;;;;;;1.98;1.38;;;;;;;17.16;79.69;100305.50;10441879;28;20048;-71
2023/08/30 11:02:38;;;;;;;4.07;2.53;;;;;;;17.05;81.00;100298.72;10441922;28;20052;-71
2023/08/30 11:07:40;;;;;;;2.53;2.20;;;;;;;17.34;80.52;100331.19;10445621;28;20030;-70
2023/08/30 11:12:44;;;;;;;3.90;2.13;;;;;;;17.41;80.52;100339.81;10444424;28;20374;-70
2023/08/30 11:17:48;;;;;;;4.90;2.83;;;;;;;17.47;80.22;100361.47;10440272;28;20056;-71
2023/08/30 11:22:52;;;;;;;3.88;2.28;;;;;;;17.49;80.21;100353.63;10447334;28;20135;-71
2023/08/30 11:28:03;;;;;;;4.45;2.65;;;;;;;17.65;79.30;100344.75;10431102;28;20084;-74
2023/08/30 11:33:05;;;;;;;2.92;2.10;;;;;;;17.67;79.54;100287.75;10435219;28;20053;-76
2023/08/30 11:38:07;;;;;;;4.80;2.92;;;;;;;18.07;78.10;100315.91;10442048;28;20503;-74
2023/08/30 11:43:10;;;;;;;3.47;2.00;;;;;;;18.09;77.96;100265.59;10433310;28;20040;-74
2023/08/30 11:48:12;;;;;;;3.50;2.25;;;;;;;18.22;77.39;100264.47;10433637;28;20033;-75
2023/08/30 11:53:14;;;;;;;3.20;2.30;;;;;;;18.50;76.60;100261.09;10454192;28;20061;-74
2023/08/30 11:58:18;;;;;;;6.68;2.60;;;;;;;18.60;76.17;100266.22;10420592;28;20042;-73
2023/08/30 12:03:21;;;;;;;1.80;1.50;;;;;;;18.90;74.88;100269.63;10444034;28;20483;-73
2023/08/30 12:08:32;;;;;;;1.75;1.13;;;;;;;19.13;74.03;100270.00;10441059;28;20041;-72
2023/08/30 12:13:35;;;;;;;2.90;1.98;;;;;;;18.93;73.47;100286.44;10429504;28;20045;-72
2023/08/30 12:18:42;;;;;;;4.60;2.00;;;;;;;18.89;73.69;100201.28;10443725;28;20045;-70
2023/08/30 12:23:44;;;;;;;;;;;;;;;18.92;73.11;100242.31;10464664;28;20052;-69
2023/08/30 12:28:47;;;;;;;1.55;1.25;;;;;;;18.94;73.45;100243.59;10440407;28;20015;-70
2023/08/30 12:33:49;;;;;;;1.58;1.48;;;;;;;19.04;74.07;100231.16;10435742;28;20411;-71
2023/08/30 12:38:51;;;;;;;2.65;2.25;;;;;;;19.05;72.21;100234.75;10424677;28;20049;-75
2023/08/30 12:43:54;;;;;;;2.85;1.85;;;;;;;19.16;72.66;100241.50;10438354;28;20037;-72
2023/08/30 12:48:56;;;;;;;2.83;1.80;;;;;;;19.33;72.21;100241.25;10433386;28;20056;-72
2023/08/30 12:53:58;;;;;;;3.42;1.90;;;;;;;19.45;71.77;100254.34;10437768;28;20447;-74
2023/08/30 12:59:01;;;;;;;2.30;1.50;;;;;;;19.44;71.34;100252.72;10442852;28;20040;-75
2023/08/30 13:04:03;;;;;;;2.30;1.38;;;;;;;19.76;70.79;100262.06;10446286;28;20439;-69
2023/08/30 13:09:06;;;;;;;1.52;1.42;;;;;;;19.88;69.88;100285.13;10443552;28;20058;-69
2023/08/30 13:14:08;;;;;;;2.00;1.40;;;;;;;19.98;69.32;100292.19;10439088;28;20045;-69
2023/08/30 13:19:10;;;;;;;2.33;1.48;;;;;;;20.23;68.42;100284.53;10450313;28;20056;-69
2023/08/30 13:24:12;;;;;;;2.03;1.48;;;;;;;20.22;68.74;100276.53;10468366;28;20033;-69
2023/08/30 13:29:15;;;;;;;2.00;1.30;;;;;;;20.13;68.37;100254.38;10427754;28;20041;-69
2023/08/30 13:34:17;;;;;;;4.43;1.30;;;;;;;20.01;68.25;100285.09;10439881;28;20057;-69
2023/08/30 13:39:21;;;;;;;3.20;1.45;;;;;;;19.97;69.08;100290.56;10431167;28;20049;-69
2023/08/30 13:44:24;;;;;;;3.72;1.65;;;;;;;19.98;68.80;100296.94;10442792;28;20038;-69
2023/08/30 13:49:27;;;;;;;2.47;1.48;;;;;;;20.12;68.85;100298.16;10441576;28;20396;-69
2023/08/30 13:54:29;;;;;;;3.00;1.65;;;;;;;20.35;68.51;100298.41;10439630;28;20064;-69
2023/08/30 13:59:35;;;;;;;2.78;2.00;;;;;;;20.47;67.95;100292.78;10439945;28;20042;-69
2023/08/30 14:04:37;;;;;;;2.83;1.50;;;;;;;20.42;68.64;100297.84;10438645;28;20045;-69
2023/08/30 14:09:40;;;;;;;2.63;2.00;;;;;;;20.52;69.45;100291.75;10441125;28;20046;-69
2023/08/30 14:14:43;;;;;;;4.28;1.58;;;;;;;20.51;70.00;100283.75;10436073;28;20046;-69
2023/08/30 14:19:46;;;;;;;1.35;1.17;;;;;;;20.29;69.83;100260.00;10449288;28;20038;-69
2023/08/30 14:24:49;;;;;;;3.15;1.48;;;;;;;20.50;70.34;100271.78;10440503;28;20033;-69
2023/08/30 14:29:51;;;;;;;2.60;2.33;;;;;;;20.38;70.71;100269.03;10428733;28;20037;-69
2023/08/30 14:34:53;;;;;;;4.72;1.98;;;;;;;20.20;71.09;100251.81;10441882;28;20053;-69
2023/08/30 14:39:55;;;;;;;2.47;1.70;;;;;;;20.03;71.60;100233.44;10449524;28;20559;-69
2023/08/30 14:44:58;;;;;;;3.80;1.77;;;;;;;20.03;72.76;100247.34;10447062;28;20040;-67
2023/08/30 14:50:02;;;;;;;2.03;1.75;;;;;;;20.01;73.19;100255.25;10449061;28;20037;-68
2023/08/30 14:55:06;;;;;;;4.38;1.80;;;;;;;19.98;73.24;100236.47;10436584;28;20041;-68
2023/08/30 15:00:08;;;;;;;4.22;2.17;;;;;;;19.85;73.40;100240.47;10418122;28;20041;-69
2023/08/30 15:05:11;;;;;;;4.70;2.20;;;;;;;19.80;74.33;100233.19;10414510;28;20049;-68
2023/08/30 15:10:13;;;;;;;3.95;2.65;;;;;;;19.73;74.86;100230.16;10430381;28;20050;-69
2023/08/30 15:15:18;;;;;;;2.97;2.10;;;;;;;19.81;74.41;100231.19;10438111;28;20045;-69
2023/08/30 15:20:22;;;;;;;3.03;2.23;;;;;;;19.69;75.15;100232.03;10443690;28;20029;-69
2023/08/30 15:25:25;;;;;;;5.40;2.33;;;;;;;19.68;75.90;100226.84;10442888;28;20060;-69
2023/08/30 15:30:28;;;;;;;3.53;1.80;;;;;;;19.61;75.66;100227.41;10436693;28;20041;-69
2023/08/30 15:35:30;;;;;;;2.97;1.92;;;;;;;19.70;76.27;100216.16;10455713;28;20057;-69
2023/08/30 15:40:33;;;;;;;2.35;2.00;;;;;;;19.58;76.48;100205.84;10419437;28;20530;-69
2023/08/30 15:45:36;;;;;;;2.03;1.67;;;;;;;19.55;77.12;100182.31;10421973;28;20407;-69
2023/08/30 15:50:38;;;;;;;3.45;2.72;;;;;;;19.52;77.06;100173.84;10411598;28;20030;-69
2023/08/30 15:55:40;;;;;;;4.93;1.95;;;;;;;19.55;76.78;100160.06;10405451;28;20033;-69
2023/08/30 16:00:42;;;;;;;3.13;2.05;;;;;;;19.54;77.51;100152.88;10403887;28;20038;-70
2023/08/30 16:05:45;;;;;;;3.88;2.00;;;;;;;19.58;77.47;100158.53;10404236;28;20042;-70
2023/08/30 16:10:53;;;;;;;5.85;2.67;;;;;;;19.60;77.49;100141.47;10409507;28;20546;-70
2023/08/30 16:15:55;;;;;;;4.57;2.92;;;;;;;19.57;77.71;100137.44;10407808;28;20034;-70
2023/08/30 16:20:57;;;;;;;2.42;1.73;;;;;;;19.60;78.07;100142.28;10420096;28;20041;-71
2023/08/30 16:26:00;;;;;;;3.47;1.75;;;;;;;19.52;78.14;100135.69;10426501;28;20036;-70
2023/08/30 16:31:06;;;;;;;5.35;1.98;;;;;;;19.52;78.90;100146.81;10417235;28;20053;-70
2023/08/30 16:36:08;;;;;;;4.17;2.50;;;;;;;19.57;78.04;100127.09;10441830;28;20415;-70
2023/08/30 16:41:11;;;;;;;3.05;2.28;;;;;;;19.41;79.24;100123.44;10430542;28;20064;-71
2023/08/30 16:46:13;;;;;;;4.70;2.20;;;;;;;19.39;79.87;100128.53;10411853;28;20489;-70
2023/08/30 16:51:15;;;;;;;4.35;2.50;;;;;;;19.35;79.91;100135.97;10402904;28;20048;-70
2023/08/30 16:56:17;;;;;;;3.03;2.60;;;;;;;19.29;80.04;100156.88;10409084;28;20042;-70
2023/08/30 17:01:20;;;;;;;2.00;1.77;;;;;;;19.35;80.00;100158.25;10432551;28;20041;-69
2023/08/30 17:06:22;;;;;;;2.90;2.05;;;;;;;19.30;80.32;100164.06;10432981;28;20435;-69
2023/08/30 17:11:24;;;;;;;1.92;1.38;;;;;;;19.31;80.39;100176.81;10436482;28;20080;-68
2023/08/30 17:16:27;;;;;;;3.42;2.33;;;;;;;19.28;80.31;100196.97;10437569;28;20042;-69
2023/08/30 17:21:29;;;;;;;2.75;1.70;;;;;;;19.37;80.03;100196.84;10434672;28;20554;-69
2023/08/30 17:26:31;;;;;;;3.25;2.22;;;;;;;19.39;79.94;100202.84;10400744;28;20057;-69
2023/08/30 17:31:34;;;;;;;3.03;1.90;;;;;;;19.44;80.19;100206.22;10439086;28;20048;-69
2023/08/30 17:36:36;;;;;;;2.85;2.00;;;;;;;19.50;80.02;100213.16;10437327;28;20144;-70
2023/08/30 17:41:39;;;;;;;2.13;1.88;;;;;;;19.58;79.84;100214.19;10441247;28;20516;-69
2023/08/30 17:46:41;;;;;;;2.55;2.03;;;;;;;19.65;79.31;100217.22;10440134;28;20044;-69
2023/08/30 17:51:46;;;;;;;3.88;2.40;;;;;;;19.75;79.24;100229.81;10445554;28;20508;-69
2023/08/30 17:56:48;;;;;;;2.70;1.90;;;;;;;19.66;79.42;100220.81;10449729;28;20527;-70
2023/08/30 18:01:52;;;;;;;2.40;2.20;;;;;;;19.66;79.41;100224.41;10448613;28;20038;-69
2023/08/30 18:06:56;;;;;;;3.20;2.13;;;;;;;19.72;78.88;100220.19;10440361;28;20116;-69
2023/08/30 18:11:59;;;;;;;5.53;2.20;;;;;;;19.75;79.58;100224.25;10449560;28;20045;-70
2023/08/30 18:17:03;;;;;;;4.22;3.03;;;;;;;19.82;79.10;100219.72;10448253;28;20530;-70
2023/08/30 18:22:05;;;;;;;3.70;2.13;;;;;;;19.78;78.96;100209.63;10445317;28;20048;-70
2023/08/30 18:27:09;;;;;;;3.15;2.22;;;;;;;19.79;79.41;100194.56;10445553;28;20033;-69
2023/08/30 18:32:12;;;;;;;2.97;2.20;;;;;;;19.80;79.99;100196.97;10447858;28;20049;-68
2023/08/30 18:37:15;;;;;;;3.85;2.60;;;;;;;19.80;80.00;100199.78;10448793;28;20037;-68
2023/08/30 18:42:23;;;;;;;4.75;2.40;;;;;;;19.75;80.30;100188.06;10441340;28;20060;-70
2023/08/30 18:47:25;;;;;;;3.90;2.47;;;;;;;19.77;79.54;100171.81;10439027;28;20052;-70
2023/08/30 18:52:28;;;;;;;6.30;2.78;;;;;;;19.83;80.21;100181.53;10440033;28;20518;-70
2023/08/30 18:57:30;;;;;;;5.15;2.45;;;;;;;19.83;79.62;100175.97;10444372;28;20049;-70
2023/08/30 19:02:33;;;;;;;3.58;2.42;;;;;;;19.72;80.23;100164.53;10442356;28;20041;-69
2023/08/30 19:07:35;;;;;;;2.47;1.88;;;;;;;19.74;80.30;100175.31;10438619;28;20049;-68
2023/08/30 19:12:37;;;;;;;4.45;2.50;;;;;;;19.71;80.06;100174.03;10441404;28;20491;-69
2023/08/30 19:17:40;;;;;;;3.67;2.60;;;;;;;19.70;79.99;100175.19;10437836;28;20041;-69
2023/08/30 19:22:43;;;;;;;6.05;2.28;;;;;;;19.64;80.01;100178.59;10445775;28;20041;-69
2023/08/30 19:27:51;;;;;;;5.30;2.40;;;;;;;19.58;80.39;100187.19;10445989;28;20068;-69
2023/08/30 19:32:53;;;;;;;6.38;2.60;;;;;;;19.48;81.23;100176.53;10435252;28;20046;-70
2023/08/30 19:37:55;;;;;;;4.00;2.17;;;;;;;19.42;81.36;100174.31;10444862;28;20503;-68
2023/08/30 19:42:58;;;;;;;4.03;2.40;;;;;;;19.36;81.05;100162.63;10439230;28;20052;-69
2023/08/30 19:48:00;;;;;;;2.00;1.58;;;;;;;19.30;81.40;100161.28;10430550;28;20496;-70
2023/08/30 19:53:03;;;;;;;4.85;2.42;;;;;;;19.19;82.06;100165.69;10427421;28;20045;-68
2023/08/30 19:58:06;;;;;;;3.70;2.20;;;;;;;19.15;81.60;100160.03;10418589;28;20053;-71
2023/08/30 20:03:10;;;;;;;4.07;2.38;;;;;;;19.06;81.98;100155.75;10448490;28;20034;-74
2023/08/30 20:08:12;;;;;;;9.07;2.85;;;;;;;18.97;82.28;100153.91;10443036;28;20044;-74
2023/08/30 20:13:14;;;;;;;2.50;2.08;;;;;;;18.94;82.20;100145.47;10440363;28;20056;-74
2023/08/30 20:18:17;;;;;;;4.93;1.98;;;;;;;18.86;82.76;100144.41;10457363;28;20499;-75
2023/08/30 20:23:20;;;;;;;7.53;2.50;;;;;;;18.80;83.36;100140.25;10439667;28;20049;-72
2023/08/30 20:28:22;;;;;;;4.22;2.20;;;;;;;18.77;83.71;100148.47;10446424;28;20458;-72
2023/08/30 20:33:25;;;;;;;5.80;2.42;;;;;;;18.72;83.37;100138.38;10439803;28;20397;-72
2023/08/30 20:38:29;;;;;;;2.80;1.70;;;;;;;18.64;84.11;100151.25;10443632;28;20041;-71
2023/08/30 20:43:31;;;;;;;3.78;2.25;;;;;;;18.64;83.75;100148.47;10428931;28;20682;-71
2023/08/30 20:48:34;;;;;;;2.72;2.15;;;;;;;18.63;83.40;100132.16;10439155;28;20503;-69
2023/08/30 20:53:38;;;;;;;5.57;2.40;;;;;;;18.54;83.72;100132.22;10438060;28;20416;-69
2023/08/30 20:58:49;;;;;;;3.25;2.00;;;;;;;18.51;84.14;100123.78;10435554;28;20038;-69
2023/08/30 21:03:52;;;;;;;3.13;2.22;;;;;;;18.47;84.44;100108.97;10447744;28;20034;-70
2023/08/30 21:08:56;;;;;;;2.55;1.85;;;;;;;18.45;84.37;100089.88;10440280;28;20036;-71
2023/08/30 21:13:59;;;;;;;3.42;2.05;;;;;;;18.40;84.73;100090.09;10435609;28;20404;-76
2023/08/30 21:19:02;;;;;;;1.95;1.48;;;;;;;18.34;84.67;100085.91;10439344;28;20053;-76
2023/08/30 21:24:08;;;;;;;2.08;1.60;;;;;;;18.34;84.90;100100.63;10438930;28;20052;-72
2023/08/30 21:29:11;;;;;;;2.08;1.70;;;;;;;18.28;84.84;100109.53;10435574;28;20048;-76
2023/08/30 21:34:13;;;;;;;2.42;2.00;;;;;;;18.21;85.29;100123.97;10455434;28;20045;-76
2023/08/30 21:39:16;;;;;;;4.00;1.60;;;;;;;18.19;84.92;100126.28;10439111;28;20053;-76
2023/08/30 21:44:19;;;;;;;3.92;2.10;;;;;;;18.20;85.00;100143.75;10440888;28;20605;-72
2023/08/30 21:49:21;;;;;;;3.95;2.17;;;;;;;18.16;85.08;100154.75;10436467;28;20034;-70
2023/08/30 21:54:23;;;;;;;2.88;2.15;;;;;;;18.11;85.31;100146.66;10455432;28;20049;-70
2023/08/30 21:59:26;;;;;;;3.28;1.90;;;;;;;18.05;85.11;100156.38;10456422;28;20045;-70
2023/08/30 22:04:28;;;;;;;2.53;1.75;;;;;;;18.06;85.08;100166.31;10417732;28;20041;-71
2023/08/30 22:09:30;;;;;;;2.33;2.10;;;;;;;18.04;85.01;100151.94;10426694;28;20419;-71
2023/08/30 22:14:36;;;;;;;3.72;2.03;;;;;;;18.01;85.09;100147.88;10442679;28;20049;-71
2023/08/30 22:19:38;;;;;;;3.65;2.33;;;;;;;17.97;85.91;100151.69;10431429;28;20045;-71
2023/08/30 22:24:40;;;;;;;3.85;1.85;;;;;;;17.93;85.77;100112.72;10437849;28;20036;-72
2023/08/30 22:29:43;;;;;;;3.30;2.05;;;;;;;17.90;85.62;100130.06;10441221;28;20064;-72
2023/08/30 22:34:45;;;;;;;2.17;1.75;;;;;;;17.81;86.49;100137.66;10444639;28;20048;-71
2023/08/30 22:39:47;;;;;;;2.88;2.10;;;;;;;17.80;86.72;100163.78;10447244;28;20046;-72
2023/08/30 22:44:49;;;;;;;2.05;1.75;;;;;;;17.78;86.49;100155.78;10447302;28;20041;-71
2023/08/30 22:49:52;;;;;;;5.55;2.53;;;;;;;17.75;86.85;100139.84;10453742;28;20037;-71
2023/08/30 22:54:54;;;;;;;1.67;1.58;;;;;;;17.68;87.03;100142.34;10457429;28;20486;-71
2023/08/30 22:59:57;;;;;;;3.72;1.88;;;;;;;17.65;87.06;100176.28;10435364;28;20158;-72
2023/08/30 23:04:59;;;;;;;2.38;1.80;;;;;;;17.69;87.23;100191.13;10453559;28;20056;-71
2023/08/30 23:10:03;;;;;;;4.90;2.70;;;;;;;17.67;87.32;100165.66;10447138;28;20552;-72
2023/08/30 23:15:06;;;;;;;3.15;2.30;;;;;;;17.56;87.26;100210.81;10447519;28;20048;-72